Tremont, Illinois
Current Conditions -  °F | °C
As of 3:54 AM on Sunday 21 Dec 2014 (Local Time) from KPIA Reporting Station
Overcast Overcast  
Wind Chill: 32°   Ceiling: 3600
Heat Index: 36°   Visibility: 8mi
Dew Point: 29°   Wind: 5mph
Humidity: 76%   Direction: 160°SSE
Pressure: 30.2"   Gusts: NA
Location:  40.53°N, 89.49°W
Report Text: KPIA 210954Z 16004KT 8SM OVC036 02/M02 A3020 RMK AO2 SLP233 T00221017
Loading
Personal Weather Stations






























Interactive Weather Map New forecast layout! Learn more

10-Day Weather Forecast

Advertisements
Track Severe Weather on mobile